sensor_id;sensor_type;location;lat;lon;timestamp;P1;durP1;ratioP1;P2;durP2;ratioP2
4132;SDS011;2080;51.038;7.008;2024-03-08T00:00:46;40.10;;;16.00;;
4132;SDS011;2080;51.038;7.008;2024-03-08T00:03:13;40.88;;;14.80;;
4132;SDS011;2080;51.038;7.008;2024-03-08T00:05:39;40.97;;;14.67;;
4132;SDS011;2080;51.038;7.008;2024-03-08T00:08:07;41.95;;;16.20;;
4132;SDS011;2080;51.038;7.008;2024-03-08T00:10:34;42.70;;;15.20;;
4132;SDS011;2080;51.038;7.008;2024-03-08T00:13:00;40.13;;;14.80;;
4132;SDS011;2080;51.038;7.008;2024-03-08T00:15:25;43.92;;;16.85;;
4132;SDS011;2080;51.038;7.008;2024-03-08T00:17:51;38.27;;;15.73;;
4132;SDS011;2080;51.038;7.008;2024-03-08T00:20:16;41.67;;;17.07;;
4132;SDS011;2080;51.038;7.008;2024-03-08T00:22:45;46.00;;;17.63;;
4132;SDS011;2080;51.038;7.008;2024-03-08T00:25:11;44.13;;;17.55;;
4132;SDS011;2080;51.038;7.008;2024-03-08T00:27:42;44.15;;;17.55;;
4132;SDS011;2080;51.038;7.008;2024-03-08T00:30:12;40.50;;;16.83;;
4132;SDS011;2080;51.038;7.008;2024-03-08T00:32:42;41.03;;;15.70;;
4132;SDS011;2080;51.038;7.008;2024-03-08T00:35:08;40.50;;;15.73;;
4132;SDS011;2080;51.038;7.008;2024-03-08T00:37:37;38.93;;;15.90;;
4132;SDS011;2080;51.038;7.008;2024-03-08T00:40:02;40.73;;;15.07;;
4132;SDS011;2080;51.038;7.008;2024-03-08T00:42:28;46.60;;;17.45;;
4132;SDS011;2080;51.038;7.008;2024-03-08T00:44:56;46.17;;;17.30;;
4132;SDS011;2080;51.038;7.008;2024-03-08T00:47:24;43.65;;;17.35;;
4132;SDS011;2080;51.038;7.008;2024-03-08T00:49:49;47.65;;;17.02;;
4132;SDS011;2080;51.038;7.008;2024-03-08T00:52:18;43.58;;;16.38;;
4132;SDS011;2080;51.038;7.008;2024-03-08T00:54:44;50.58;;;17.08;;
4132;SDS011;2080;51.038;7.008;2024-03-08T00:57:10;46.07;;;17.70;;
4132;SDS011;2080;51.038;7.008;2024-03-08T00:59:37;41.90;;;17.27;;
4132;SDS011;2080;51.038;7.008;2024-03-08T01:02:03;54.63;;;18.38;;
4132;SDS011;2080;51.038;7.008;2024-03-08T01:04:28;39.80;;;17.00;;
4132;SDS011;2080;51.038;7.008;2024-03-08T01:06:56;43.13;;;16.40;;
4132;SDS011;2080;51.038;7.008;2024-03-08T01:09:22;49.88;;;18.20;;
4132;SDS011;2080;51.038;7.008;2024-03-08T01:11:48;46.20;;;17.77;;
4132;SDS011;2080;51.038;7.008;2024-03-08T01:14:14;42.40;;;18.07;;
4132;SDS011;2080;51.038;7.008;2024-03-08T01:16:40;53.27;;;19.63;;
4132;SDS011;2080;51.038;7.008;2024-03-08T01:19:06;48.10;;;18.08;;
4132;SDS011;2080;51.038;7.008;2024-03-08T01:21:32;48.67;;;17.38;;
4132;SDS011;2080;51.038;7.008;2024-03-08T01:23:59;41.08;;;16.67;;
4132;SDS011;2080;51.038;7.008;2024-03-08T01:26:25;46.83;;;15.80;;
4132;SDS011;2080;51.038;7.008;2024-03-08T01:28:50;42.80;;;18.10;;
4132;SDS011;2080;51.038;7.008;2024-03-08T01:31:15;48.60;;;18.85;;
4132;SDS011;2080;51.038;7.008;2024-03-08T01:33:43;44.73;;;18.70;;
4132;SDS011;2080;51.038;7.008;2024-03-08T01:36:08;49.77;;;18.10;;
4132;SDS011;2080;51.038;7.008;2024-03-08T01:38:40;43.75;;;17.33;;
4132;SDS011;2080;51.038;7.008;2024-03-08T01:41:05;45.53;;;17.10;;
4132;SDS011;2080;51.038;7.008;2024-03-08T01:43:31;52.03;;;16.80;;
4132;SDS011;2080;51.038;7.008;2024-03-08T01:45:57;47.10;;;17.47;;
4132;SDS011;2080;51.038;7.008;2024-03-08T01:48:27;40.60;;;17.13;;
4132;SDS011;2080;51.038;7.008;2024-03-08T01:50:56;53.08;;;18.90;;
4132;SDS011;2080;51.038;7.008;2024-03-08T01:53:25;38.83;;;17.20;;
4132;SDS011;2080;51.038;7.008;2024-03-08T01:55:53;44.95;;;17.10;;
4132;SDS011;2080;51.038;7.008;2024-03-08T01:58:21;49.42;;;18.20;;
4132;SDS011;2080;51.038;7.008;2024-03-08T02:00:50;42.03;;;17.08;;
4132;SDS011;2080;51.038;7.008;2024-03-08T02:03:18;50.17;;;18.58;;
4132;SDS011;2080;51.038;7.008;2024-03-08T02:05:43;49.03;;;18.50;;
4132;SDS011;2080;51.038;7.008;2024-03-08T02:08:09;40.97;;;18.00;;
4132;SDS011;2080;51.038;7.008;2024-03-08T02:10:39;53.58;;;19.77;;
4132;SDS011;2080;51.038;7.008;2024-03-08T02:13:08;46.55;;;17.98;;
4132;SDS011;2080;51.038;7.008;2024-03-08T02:18:21;51.95;;;19.60;;
4132;SDS011;2080;51.038;7.008;2024-03-08T02:20:51;46.22;;;17.27;;
4132;SDS011;2080;51.038;7.008;2024-03-08T02:23:18;48.97;;;18.10;;
4132;SDS011;2080;51.038;7.008;2024-03-08T02:25:46;47.80;;;17.92;;
4132;SDS011;2080;51.038;7.008;2024-03-08T02:28:15;46.97;;;18.67;;
4132;SDS011;2080;51.038;7.008;2024-03-08T02:30:46;40.47;;;16.52;;
4132;SDS011;2080;51.038;7.008;2024-03-08T02:33:13;53.90;;;18.20;;
4132;SDS011;2080;51.038;7.008;2024-03-08T02:35:41;48.08;;;18.30;;
4132;SDS011;2080;51.038;7.008;2024-03-08T02:38:10;49.53;;;17.23;;
4132;SDS011;2080;51.038;7.008;2024-03-08T02:40:36;44.40;;;17.10;;
4132;SDS011;2080;51.038;7.008;2024-03-08T02:43:01;48.67;;;17.07;;
4132;SDS011;2080;51.038;7.008;2024-03-08T02:45:32;43.70;;;17.10;;
4132;SDS011;2080;51.038;7.008;2024-03-08T02:47:57;44.65;;;17.48;;
4132;SDS011;2080;51.038;7.008;2024-03-08T02:50:22;44.70;;;17.40;;
4132;SDS011;2080;51.038;7.008;2024-03-08T02:52:48;47.03;;;17.27;;
4132;SDS011;2080;51.038;7.008;2024-03-08T02:55:13;49.15;;;19.08;;
4132;SDS011;2080;51.038;7.008;2024-03-08T02:57:41;46.63;;;17.23;;
4132;SDS011;2080;51.038;7.008;2024-03-08T03:00:07;45.57;;;17.73;;
4132;SDS011;2080;51.038;7.008;2024-03-08T03:02:38;45.97;;;17.00;;
4132;SDS011;2080;51.038;7.008;2024-03-08T03:05:03;38.83;;;17.43;;
4132;SDS011;2080;51.038;7.008;2024-03-08T03:07:33;42.38;;;16.63;;
4132;SDS011;2080;51.038;7.008;2024-03-08T03:09:59;42.33;;;17.75;;
4132;SDS011;2080;51.038;7.008;2024-03-08T03:12:26;40.08;;;16.60;;
4132;SDS011;2080;51.038;7.008;2024-03-08T03:14:58;50.90;;;19.27;;
4132;SDS011;2080;51.038;7.008;2024-03-08T03:17:28;44.38;;;18.08;;
4132;SDS011;2080;51.038;7.008;2024-03-08T03:19:56;48.90;;;18.25;;
4132;SDS011;2080;51.038;7.008;2024-03-08T03:22:21;41.72;;;16.70;;
4132;SDS011;2080;51.038;7.008;2024-03-08T03:24:47;50.37;;;17.87;;
4132;SDS011;2080;51.038;7.008;2024-03-08T03:27:15;47.67;;;18.42;;
4132;SDS011;2080;51.038;7.008;2024-03-08T03:29:41;53.33;;;17.35;;
4132;SDS011;2080;51.038;7.008;2024-03-08T03:32:10;54.63;;;18.40;;
4132;SDS011;2080;51.038;7.008;2024-03-08T03:34:39;49.65;;;17.77;;
4132;SDS011;2080;51.038;7.008;2024-03-08T03:37:09;48.28;;;18.38;;
4132;SDS011;2080;51.038;7.008;2024-03-08T03:39:37;40.27;;;16.90;;
4132;SDS011;2080;51.038;7.008;2024-03-08T03:42:20;45.47;;;16.92;;
4132;SDS011;2080;51.038;7.008;2024-03-08T03:44:49;42.63;;;16.85;;
4132;SDS011;2080;51.038;7.008;2024-03-08T03:47:17;47.47;;;17.60;;
4132;SDS011;2080;51.038;7.008;2024-03-08T03:49:42;46.75;;;17.63;;
4132;SDS011;2080;51.038;7.008;2024-03-08T03:52:10;43.42;;;17.00;;
4132;SDS011;2080;51.038;7.008;2024-03-08T03:54:40;50.22;;;18.15;;
4132;SDS011;2080;51.038;7.008;2024-03-08T03:57:08;51.20;;;18.40;;
4132;SDS011;2080;51.038;7.008;2024-03-08T03:59:37;45.47;;;16.52;;
4132;SDS011;2080;51.038;7.008;2024-03-08T04:02:02;44.20;;;17.03;;
4132;SDS011;2080;51.038;7.008;2024-03-08T04:04:31;44.22;;;17.70;;
4132;SDS011;2080;51.038;7.008;2024-03-08T04:06:58;44.95;;;17.02;;
4132;SDS011;2080;51.038;7.008;2024-03-08T04:09:24;47.50;;;17.70;;
4132;SDS011;2080;51.038;7.008;2024-03-08T04:11:52;45.23;;;18.07;;
4132;SDS011;2080;51.038;7.008;2024-03-08T04:14:20;43.42;;;17.02;;
4132;SDS011;2080;51.038;7.008;2024-03-08T04:16:46;45.13;;;18.42;;
4132;SDS011;2080;51.038;7.008;2024-03-08T04:19:13;45.60;;;18.90;;
4132;SDS011;2080;51.038;7.008;2024-03-08T04:21:41;49.50;;;18.95;;
4132;SDS011;2080;51.038;7.008;2024-03-08T04:24:07;46.22;;;17.98;;
4132;SDS011;2080;51.038;7.008;2024-03-08T04:26:34;39.95;;;15.98;;
4132;SDS011;2080;51.038;7.008;2024-03-08T04:28:59;49.03;;;18.80;;
4132;SDS011;2080;51.038;7.008;2024-03-08T04:31:24;55.20;;;17.60;;
4132;SDS011;2080;51.038;7.008;2024-03-08T04:33:51;43.20;;;16.30;;
4132;SDS011;2080;51.038;7.008;2024-03-08T04:36:19;50.70;;;17.30;;
4132;SDS011;2080;51.038;7.008;2024-03-08T04:38:45;46.83;;;18.60;;
4132;SDS011;2080;51.038;7.008;2024-03-08T04:41:11;45.27;;;17.47;;
4132;SDS011;2080;51.038;7.008;2024-03-08T04:43:36;44.07;;;17.67;;
4132;SDS011;2080;51.038;7.008;2024-03-08T04:46:04;44.50;;;17.20;;
4132;SDS011;2080;51.038;7.008;2024-03-08T04:48:30;52.43;;;19.30;;
4132;SDS011;2080;51.038;7.008;2024-03-08T04:50:56;45.93;;;16.80;;
4132;SDS011;2080;51.038;7.008;2024-03-08T04:53:23;43.70;;;17.65;;
4132;SDS011;2080;51.038;7.008;2024-03-08T04:55:51;46.47;;;17.52;;
4132;SDS011;2080;51.038;7.008;2024-03-08T04:58:16;52.70;;;17.63;;
4132;SDS011;2080;51.038;7.008;2024-03-08T05:00:46;47.58;;;17.98;;
4132;SDS011;2080;51.038;7.008;2024-03-08T05:03:14;47.00;;;17.33;;
4132;SDS011;2080;51.038;7.008;2024-03-08T05:05:39;48.35;;;19.13;;
4132;SDS011;2080;51.038;7.008;2024-03-08T05:08:07;53.20;;;19.83;;
4132;SDS011;2080;51.038;7.008;2024-03-08T05:10:32;64.90;;;24.13;;
4132;SDS011;2080;51.038;7.008;2024-03-08T05:13:00;46.80;;;18.97;;
4132;SDS011;2080;51.038;7.008;2024-03-08T05:15:26;50.43;;;18.27;;
4132;SDS011;2080;51.038;7.008;2024-03-08T05:17:51;43.50;;;18.20;;
4132;SDS011;2080;51.038;7.008;2024-03-08T05:20:16;54.27;;;19.20;;
4132;SDS011;2080;51.038;7.008;2024-03-08T05:22:42;47.47;;;17.90;;
4132;SDS011;2080;51.038;7.008;2024-03-08T05:25:08;53.67;;;17.93;;
4132;SDS011;2080;51.038;7.008;2024-03-08T05:27:34;50.03;;;21.23;;
4132;SDS011;2080;51.038;7.008;2024-03-08T05:30:02;51.70;;;19.42;;
4132;SDS011;2080;51.038;7.008;2024-03-08T05:32:31;50.38;;;18.92;;
4132;SDS011;2080;51.038;7.008;2024-03-08T05:34:57;52.65;;;19.52;;
4132;SDS011;2080;51.038;7.008;2024-03-08T05:37:25;50.42;;;18.98;;
4132;SDS011;2080;51.038;7.008;2024-03-08T05:39:53;48.20;;;18.73;;
4132;SDS011;2080;51.038;7.008;2024-03-08T05:42:19;52.03;;;19.10;;
4132;SDS011;2080;51.038;7.008;2024-03-08T05:44:44;49.53;;;16.33;;
4132;SDS011;2080;51.038;7.008;2024-03-08T05:47:09;54.50;;;19.17;;
4132;SDS011;2080;51.038;7.008;2024-03-08T05:49:36;63.38;;;19.55;;
4132;SDS011;2080;51.038;7.008;2024-03-08T05:52:01;53.90;;;19.92;;
4132;SDS011;2080;51.038;7.008;2024-03-08T05:54:26;49.87;;;19.30;;
4132;SDS011;2080;51.038;7.008;2024-03-08T05:56:52;43.43;;;18.43;;
4132;SDS011;2080;51.038;7.008;2024-03-08T05:59:18;53.90;;;19.80;;
4132;SDS011;2080;51.038;7.008;2024-03-08T06:01:43;52.45;;;17.98;;
4132;SDS011;2080;51.038;7.008;2024-03-08T06:04:11;48.10;;;18.10;;
4132;SDS011;2080;51.038;7.008;2024-03-08T06:06:36;59.90;;;17.93;;
4132;SDS011;2080;51.038;7.008;2024-03-08T06:09:04;51.78;;;18.30;;
4132;SDS011;2080;51.038;7.008;2024-03-08T06:11:42;50.92;;;18.70;;
4132;SDS011;2080;51.038;7.008;2024-03-08T06:14:08;62.33;;;21.17;;
4132;SDS011;2080;51.038;7.008;2024-03-08T06:16:33;53.60;;;19.98;;
4132;SDS011;2080;51.038;7.008;2024-03-08T06:19:01;49.57;;;19.03;;
4132;SDS011;2080;51.038;7.008;2024-03-08T06:21:29;57.47;;;21.27;;
4132;SDS011;2080;51.038;7.008;2024-03-08T06:23:54;59.20;;;21.57;;
4132;SDS011;2080;51.038;7.008;2024-03-08T06:26:22;50.03;;;20.50;;
4132;SDS011;2080;51.038;7.008;2024-03-08T06:28:50;55.33;;;22.20;;
4132;SDS011;2080;51.038;7.008;2024-03-08T06:31:21;55.92;;;20.55;;
4132;SDS011;2080;51.038;7.008;2024-03-08T06:33:46;50.67;;;19.80;;
4132;SDS011;2080;51.038;7.008;2024-03-08T06:36:15;52.28;;;21.23;;
4132;SDS011;2080;51.038;7.008;2024-03-08T06:38:43;53.30;;;21.40;;
4132;SDS011;2080;51.038;7.008;2024-03-08T06:41:11;50.13;;;19.35;;
4132;SDS011;2080;51.038;7.008;2024-03-08T06:43:44;56.85;;;20.10;;
4132;SDS011;2080;51.038;7.008;2024-03-08T06:46:10;49.10;;;20.27;;
4132;SDS011;2080;51.038;7.008;2024-03-08T06:48:38;52.13;;;19.75;;
4132;SDS011;2080;51.038;7.008;2024-03-08T06:51:03;49.50;;;20.23;;
4132;SDS011;2080;51.038;7.008;2024-03-08T06:53:30;54.80;;;19.40;;
4132;SDS011;2080;51.038;7.008;2024-03-08T06:55:55;52.95;;;20.75;;
4132;SDS011;2080;51.038;7.008;2024-03-08T06:58:25;60.47;;;21.42;;
4132;SDS011;2080;51.038;7.008;2024-03-08T07:00:54;52.77;;;19.50;;
4132;SDS011;2080;51.038;7.008;2024-03-08T07:03:25;57.42;;;20.30;;
4132;SDS011;2080;51.038;7.008;2024-03-08T07:05:54;54.83;;;20.67;;
4132;SDS011;2080;51.038;7.008;2024-03-08T07:08:25;54.25;;;19.30;;
4132;SDS011;2080;51.038;7.008;2024-03-08T07:10:52;48.45;;;18.08;;
4132;SDS011;2080;51.038;7.008;2024-03-08T07:13:18;46.60;;;18.35;;
4132;SDS011;2080;51.038;7.008;2024-03-08T07:15:43;48.23;;;18.83;;
4132;SDS011;2080;51.038;7.008;2024-03-08T07:18:10;54.90;;;19.70;;
4132;SDS011;2080;51.038;7.008;2024-03-08T07:20:40;45.90;;;18.02;;
4132;SDS011;2080;51.038;7.008;2024-03-08T07:23:06;41.07;;;14.87;;
4132;SDS011;2080;51.038;7.008;2024-03-08T07:25:33;50.22;;;17.02;;
4132;SDS011;2080;51.038;7.008;2024-03-08T07:28:00;44.20;;;16.77;;
4132;SDS011;2080;51.038;7.008;2024-03-08T07:30:26;43.15;;;16.98;;
4132;SDS011;2080;51.038;7.008;2024-03-08T07:33:10;43.50;;;17.15;;
4132;SDS011;2080;51.038;7.008;2024-03-08T07:35:40;48.83;;;18.40;;
4132;SDS011;2080;51.038;7.008;2024-03-08T07:38:09;45.83;;;17.55;;
4132;SDS011;2080;51.038;7.008;2024-03-08T07:40:38;39.35;;;16.67;;
4132;SDS011;2080;51.038;7.008;2024-03-08T07:43:08;47.83;;;18.50;;
4132;SDS011;2080;51.038;7.008;2024-03-08T07:45:35;48.83;;;17.65;;
4132;SDS011;2080;51.038;7.008;2024-03-08T07:48:01;50.00;;;19.50;;
4132;SDS011;2080;51.038;7.008;2024-03-08T07:50:28;44.97;;;18.30;;
4132;SDS011;2080;51.038;7.008;2024-03-08T07:52:53;48.85;;;17.02;;
4132;SDS011;2080;51.038;7.008;2024-03-08T07:55:19;51.58;;;18.27;;
4132;SDS011;2080;51.038;7.008;2024-03-08T07:57:51;42.10;;;16.73;;
4132;SDS011;2080;51.038;7.008;2024-03-08T08:00:19;40.58;;;16.48;;
4132;SDS011;2080;51.038;7.008;2024-03-08T08:02:47;44.60;;;17.50;;
4132;SDS011;2080;51.038;7.008;2024-03-08T08:05:14;46.97;;;17.55;;
4132;SDS011;2080;51.038;7.008;2024-03-08T08:07:40;47.22;;;16.58;;
4132;SDS011;2080;51.038;7.008;2024-03-08T08:10:08;51.33;;;18.20;;
4132;SDS011;2080;51.038;7.008;2024-03-08T08:12:41;41.63;;;16.58;;
4132;SDS011;2080;51.038;7.008;2024-03-08T08:15:07;47.40;;;17.25;;
4132;SDS011;2080;51.038;7.008;2024-03-08T08:17:35;48.95;;;17.63;;
4132;SDS011;2080;51.038;7.008;2024-03-08T08:20:01;44.10;;;17.33;;
4132;SDS011;2080;51.038;7.008;2024-03-08T08:22:30;38.88;;;15.68;;
4132;SDS011;2080;51.038;7.008;2024-03-08T08:24:57;44.23;;;17.10;;
4132;SDS011;2080;51.038;7.008;2024-03-08T08:27:23;40.27;;;15.83;;
4132;SDS011;2080;51.038;7.008;2024-03-08T08:29:51;45.55;;;17.42;;
4132;SDS011;2080;51.038;7.008;2024-03-08T08:32:16;39.03;;;16.70;;
4132;SDS011;2080;51.038;7.008;2024-03-08T08:34:43;41.70;;;16.80;;
4132;SDS011;2080;51.038;7.008;2024-03-08T08:42:52;43.42;;;16.13;;
4132;SDS011;2080;51.038;7.008;2024-03-08T08:47:12;37.85;;;15.27;;
4132;SDS011;2080;51.038;7.008;2024-03-08T08:49:38;46.47;;;16.92;;
4132;SDS011;2080;51.038;7.008;2024-03-08T08:52:03;44.67;;;17.30;;
4132;SDS011;2080;51.038;7.008;2024-03-08T08:54:29;41.60;;;14.77;;
4132;SDS011;2080;51.038;7.008;2024-03-08T08:56:54;47.23;;;16.97;;
4132;SDS011;2080;51.038;7.008;2024-03-08T08:59:20;47.90;;;15.90;;
4132;SDS011;2080;51.038;7.008;2024-03-08T09:01:45;43.17;;;15.57;;
4132;SDS011;2080;51.038;7.008;2024-03-08T09:04:18;43.30;;;17.15;;
4132;SDS011;2080;51.038;7.008;2024-03-08T09:06:44;44.63;;;16.83;;
4132;SDS011;2080;51.038;7.008;2024-03-08T09:09:10;44.80;;;16.13;;
4132;SDS011;2080;51.038;7.008;2024-03-08T09:11:38;42.22;;;16.40;;
4132;SDS011;2080;51.038;7.008;2024-03-08T09:14:09;40.50;;;16.23;;
4132;SDS011;2080;51.038;7.008;2024-03-08T09:16:36;37.67;;;14.77;;
4132;SDS011;2080;51.038;7.008;2024-03-08T09:19:02;41.57;;;14.93;;
4132;SDS011;2080;51.038;7.008;2024-03-08T09:21:31;43.83;;;14.85;;
4132;SDS011;2080;51.038;7.008;2024-03-08T09:24:02;46.33;;;15.13;;
4132;SDS011;2080;51.038;7.008;2024-03-08T09:26:28;39.47;;;14.55;;
4132;SDS011;2080;51.038;7.008;2024-03-08T09:28:55;33.20;;;13.02;;
4132;SDS011;2080;51.038;7.008;2024-03-08T09:31:21;38.38;;;14.90;;
4132;SDS011;2080;51.038;7.008;2024-03-08T09:33:46;34.83;;;14.43;;
4132;SDS011;2080;51.038;7.008;2024-03-08T09:36:12;37.30;;;13.63;;
4132;SDS011;2080;51.038;7.008;2024-03-08T09:38:40;38.03;;;14.38;;
4132;SDS011;2080;51.038;7.008;2024-03-08T09:41:07;38.13;;;14.68;;
4132;SDS011;2080;51.038;7.008;2024-03-08T09:43:37;35.10;;;14.23;;
4132;SDS011;2080;51.038;7.008;2024-03-08T09:46:03;35.40;;;14.00;;
4132;SDS011;2080;51.038;7.008;2024-03-08T09:48:33;40.40;;;13.63;;
4132;SDS011;2080;51.038;7.008;2024-03-08T09:51:03;36.55;;;12.73;;
4132;SDS011;2080;51.038;7.008;2024-03-08T09:53:29;38.35;;;13.20;;
4132;SDS011;2080;51.038;7.008;2024-03-08T09:55:56;34.63;;;13.35;;
4132;SDS011;2080;51.038;7.008;2024-03-08T09:58:21;37.40;;;12.27;;
4132;SDS011;2080;51.038;7.008;2024-03-08T10:00:58;37.42;;;13.77;;
4132;SDS011;2080;51.038;7.008;2024-03-08T10:03:27;34.28;;;13.95;;
4132;SDS011;2080;51.038;7.008;2024-03-08T10:05:54;32.83;;;12.30;;
4132;SDS011;2080;51.038;7.008;2024-03-08T10:08:25;35.47;;;12.88;;
4132;SDS011;2080;51.038;7.008;2024-03-08T10:10:56;33.53;;;14.05;;
4132;SDS011;2080;51.038;7.008;2024-03-08T10:13:26;28.83;;;12.23;;
4132;SDS011;2080;51.038;7.008;2024-03-08T10:15:57;34.42;;;12.57;;
4132;SDS011;2080;51.038;7.008;2024-03-08T10:18:22;33.27;;;12.07;;
4132;SDS011;2080;51.038;7.008;2024-03-08T10:23:30;31.38;;;12.45;;
4132;SDS011;2080;51.038;7.008;2024-03-08T10:25:56;30.15;;;11.95;;
4132;SDS011;2080;51.038;7.008;2024-03-08T10:28:23;34.05;;;12.65;;
4132;SDS011;2080;51.038;7.008;2024-03-08T10:30:53;29.10;;;11.10;;
4132;SDS011;2080;51.038;7.008;2024-03-08T10:33:21;29.17;;;10.88;;
4132;SDS011;2080;51.038;7.008;2024-03-08T10:35:46;33.03;;;11.80;;
4132;SDS011;2080;51.038;7.008;2024-03-08T10:38:11;35.00;;;11.85;;
4132;SDS011;2080;51.038;7.008;2024-03-08T10:40:44;32.40;;;12.02;;
4132;SDS011;2080;51.038;7.008;2024-03-08T10:43:12;39.63;;;11.30;;
4132;SDS011;2080;51.038;7.008;2024-03-08T10:45:50;29.17;;;11.00;;
4132;SDS011;2080;51.038;7.008;2024-03-08T10:48:29;37.63;;;11.20;;
4132;SDS011;2080;51.038;7.008;2024-03-08T10:50:57;32.72;;;10.90;;
4132;SDS011;2080;51.038;7.008;2024-03-08T10:53:23;31.52;;;12.10;;
4132;SDS011;2080;51.038;7.008;2024-03-08T10:55:57;29.10;;;10.50;;
4132;SDS011;2080;51.038;7.008;2024-03-08T10:58:28;32.53;;;10.57;;
4132;SDS011;2080;51.038;7.008;2024-03-08T11:00:54;26.55;;;10.60;;
4132;SDS011;2080;51.038;7.008;2024-03-08T11:08:48;30.33;;;10.75;;
4132;SDS011;2080;51.038;7.008;2024-03-08T11:11:25;34.40;;;12.10;;
4132;SDS011;2080;51.038;7.008;2024-03-08T11:13:53;28.20;;;10.63;;
4132;SDS011;2080;51.038;7.008;2024-03-08T11:21:29;29.50;;;11.02;;
4132;SDS011;2080;51.038;7.008;2024-03-08T11:24:07;82.65;;;27.67;;
4132;SDS011;2080;51.038;7.008;2024-03-08T11:26:37;33.35;;;12.20;;
4132;SDS011;2080;51.038;7.008;2024-03-08T11:34:41;31.65;;;10.63;;
4132;SDS011;2080;51.038;7.008;2024-03-08T11:37:10;29.20;;;10.43;;
4132;SDS011;2080;51.038;7.008;2024-03-08T11:39:38;31.55;;;10.52;;
4132;SDS011;2080;51.038;7.008;2024-03-08T11:42:08;25.67;;;9.65;;
4132;SDS011;2080;51.038;7.008;2024-03-08T11:44:33;29.88;;;9.60;;
4132;SDS011;2080;51.038;7.008;2024-03-08T11:46:59;29.97;;;10.13;;
4132;SDS011;2080;51.038;7.008;2024-03-08T11:49:26;26.08;;;9.63;;
4132;SDS011;2080;51.038;7.008;2024-03-08T11:51:52;29.02;;;10.65;;
4132;SDS011;2080;51.038;7.008;2024-03-08T11:54:21;25.25;;;9.80;;
4132;SDS011;2080;51.038;7.008;2024-03-08T11:56:47;31.65;;;9.98;;
4132;SDS011;2080;51.038;7.008;2024-03-08T11:59:16;26.93;;;9.10;;
4132;SDS011;2080;51.038;7.008;2024-03-08T12:01:42;27.00;;;9.40;;
4132;SDS011;2080;51.038;7.008;2024-03-08T12:04:10;27.98;;;10.27;;
4132;SDS011;2080;51.038;7.008;2024-03-08T12:06:40;26.25;;;10.07;;
4132;SDS011;2080;51.038;7.008;2024-03-08T12:09:09;27.00;;;9.60;;
4132;SDS011;2080;51.038;7.008;2024-03-08T12:11:39;22.60;;;8.15;;
4132;SDS011;2080;51.038;7.008;2024-03-08T12:14:06;26.77;;;9.77;;
4132;SDS011;2080;51.038;7.008;2024-03-08T12:16:36;27.17;;;9.27;;
4132;SDS011;2080;51.038;7.008;2024-03-08T12:19:02;28.65;;;8.68;;
4132;SDS011;2080;51.038;7.008;2024-03-08T12:21:30;27.83;;;9.15;;
4132;SDS011;2080;51.038;7.008;2024-03-08T12:24:09;20.60;;;7.63;;
4132;SDS011;2080;51.038;7.008;2024-03-08T12:26:36;23.10;;;8.32;;
4132;SDS011;2080;51.038;7.008;2024-03-08T12:29:15;26.55;;;8.20;;
4132;SDS011;2080;51.038;7.008;2024-03-08T12:31:42;23.85;;;7.47;;
4132;SDS011;2080;51.038;7.008;2024-03-08T12:34:08;25.08;;;8.63;;
4132;SDS011;2080;51.038;7.008;2024-03-08T12:36:37;23.45;;;8.65;;
4132;SDS011;2080;51.038;7.008;2024-03-08T12:39:02;26.92;;;9.10;;
4132;SDS011;2080;51.038;7.008;2024-03-08T12:41:32;24.13;;;8.15;;
4132;SDS011;2080;51.038;7.008;2024-03-08T12:44:04;24.83;;;8.07;;
4132;SDS011;2080;51.038;7.008;2024-03-08T12:46:32;23.40;;;8.38;;
4132;SDS011;2080;51.038;7.008;2024-03-08T12:49:02;24.33;;;9.25;;
4132;SDS011;2080;51.038;7.008;2024-03-08T12:51:29;26.58;;;8.35;;
4132;SDS011;2080;51.038;7.008;2024-03-08T12:53:55;24.38;;;7.50;;
4132;SDS011;2080;51.038;7.008;2024-03-08T12:56:33;24.03;;;7.37;;
4132;SDS011;2080;51.038;7.008;2024-03-08T12:59:00;27.38;;;8.10;;
4132;SDS011;2080;51.038;7.008;2024-03-08T13:01:29;25.05;;;8.40;;
4132;SDS011;2080;51.038;7.008;2024-03-08T13:03:57;22.58;;;8.05;;
4132;SDS011;2080;51.038;7.008;2024-03-08T13:06:25;23.08;;;8.25;;
4132;SDS011;2080;51.038;7.008;2024-03-08T13:08:51;26.03;;;8.87;;
4132;SDS011;2080;51.038;7.008;2024-03-08T13:11:20;25.10;;;8.00;;
4132;SDS011;2080;51.038;7.008;2024-03-08T13:13:45;26.38;;;8.05;;
4132;SDS011;2080;51.038;7.008;2024-03-08T13:16:11;24.38;;;8.25;;
4132;SDS011;2080;51.038;7.008;2024-03-08T13:18:40;24.33;;;8.18;;
4132;SDS011;2080;51.038;7.008;2024-03-08T13:21:09;25.65;;;8.85;;
4132;SDS011;2080;51.038;7.008;2024-03-08T13:23:35;24.52;;;8.40;;
4132;SDS011;2080;51.038;7.008;2024-03-08T13:26:05;25.67;;;8.45;;
4132;SDS011;2080;51.038;7.008;2024-03-08T13:28:37;26.30;;;7.45;;
4132;SDS011;2080;51.038;7.008;2024-03-08T13:31:05;24.02;;;8.57;;
4132;SDS011;2080;51.038;7.008;2024-03-08T13:33:39;23.38;;;8.23;;
4132;SDS011;2080;51.038;7.008;2024-03-08T13:36:07;24.52;;;8.50;;
4132;SDS011;2080;51.038;7.008;2024-03-08T13:38:40;23.73;;;8.77;;
4132;SDS011;2080;51.038;7.008;2024-03-08T13:41:07;29.10;;;9.50;;
4132;SDS011;2080;51.038;7.008;2024-03-08T13:43:36;23.10;;;8.30;;
4132;SDS011;2080;51.038;7.008;2024-03-08T13:48:02;27.08;;;9.45;;
4132;SDS011;2080;51.038;7.008;2024-03-08T13:50:29;27.67;;;9.35;;
4132;SDS011;2080;51.038;7.008;2024-03-08T13:52:55;26.80;;;9.98;;
4132;SDS011;2080;51.038;7.008;2024-03-08T13:55:21;32.28;;;10.02;;
4132;SDS011;2080;51.038;7.008;2024-03-08T13:57:50;29.98;;;10.35;;
4132;SDS011;2080;51.038;7.008;2024-03-08T14:00:18;26.83;;;9.73;;
4132;SDS011;2080;51.038;7.008;2024-03-08T14:02:50;28.13;;;11.00;;
4132;SDS011;2080;51.038;7.008;2024-03-08T14:05:17;33.67;;;9.98;;
4132;SDS011;2080;51.038;7.008;2024-03-08T14:07:45;26.38;;;10.20;;
4132;SDS011;2080;51.038;7.008;2024-03-08T14:10:14;28.52;;;9.68;;
4132;SDS011;2080;51.038;7.008;2024-03-08T14:12:40;32.43;;;10.83;;
4132;SDS011;2080;51.038;7.008;2024-03-08T14:15:07;26.33;;;9.93;;
4132;SDS011;2080;51.038;7.008;2024-03-08T14:17:33;24.80;;;8.55;;
4132;SDS011;2080;51.038;7.008;2024-03-08T14:19:59;29.53;;;9.10;;
4132;SDS011;2080;51.038;7.008;2024-03-08T14:22:24;26.17;;;9.10;;
4132;SDS011;2080;51.038;7.008;2024-03-08T14:24:50;29.10;;;10.47;;
4132;SDS011;2080;51.038;7.008;2024-03-08T14:27:19;24.58;;;9.20;;
4132;SDS011;2080;51.038;7.008;2024-03-08T14:29:44;29.38;;;10.55;;
4132;SDS011;2080;51.038;7.008;2024-03-08T14:32:12;27.15;;;9.90;;
4132;SDS011;2080;51.038;7.008;2024-03-08T14:34:39;27.90;;;10.20;;
4132;SDS011;2080;51.038;7.008;2024-03-08T14:37:35;27.58;;;9.95;;
4132;SDS011;2080;51.038;7.008;2024-03-08T14:40:00;25.10;;;9.30;;
4132;SDS011;2080;51.038;7.008;2024-03-08T14:42:25;24.20;;;8.73;;
4132;SDS011;2080;51.038;7.008;2024-03-08T14:44:51;28.50;;;10.50;;
4132;SDS011;2080;51.038;7.008;2024-03-08T14:47:19;25.73;;;10.27;;
4132;SDS011;2080;51.038;7.008;2024-03-08T14:49:44;28.88;;;10.85;;
4132;SDS011;2080;51.038;7.008;2024-03-08T14:52:10;31.50;;;10.93;;
4132;SDS011;2080;51.038;7.008;2024-03-08T14:54:53;30.40;;;10.40;;
4132;SDS011;2080;51.038;7.008;2024-03-08T14:57:21;29.58;;;10.38;;
4132;SDS011;2080;51.038;7.008;2024-03-08T14:59:46;32.47;;;11.03;;
4132;SDS011;2080;51.038;7.008;2024-03-08T15:02:15;29.60;;;11.20;;
4132;SDS011;2080;51.038;7.008;2024-03-08T15:04:42;29.73;;;10.00;;
4132;SDS011;2080;51.038;7.008;2024-03-08T15:07:14;26.95;;;9.60;;
4132;SDS011;2080;51.038;7.008;2024-03-08T15:09:39;30.30;;;10.10;;
4132;SDS011;2080;51.038;7.008;2024-03-08T15:12:08;32.92;;;10.13;;
4132;SDS011;2080;51.038;7.008;2024-03-08T15:14:37;28.75;;;10.40;;
4132;SDS011;2080;51.038;7.008;2024-03-08T15:17:07;30.60;;;9.10;;
4132;SDS011;2080;51.038;7.008;2024-03-08T15:23:07;28.65;;;9.63;;
4132;SDS011;2080;51.038;7.008;2024-03-08T15:25:34;27.75;;;10.48;;
4132;SDS011;2080;51.038;7.008;2024-03-08T15:28:03;28.25;;;9.77;;